createdAt,value
2023-04-16T00:00:06.341Z,422.8462
2023-04-16T00:01:07.351Z,429.7692
2023-04-16T00:02:08.507Z,426.6923
2023-04-16T00:03:09.569Z,409.0769
2023-04-16T00:04:10.597Z,411.0000
2023-04-16T00:05:11.525Z,422.7692
2023-04-16T00:06:12.511Z,423.3077
2023-04-16T00:07:13.566Z,420.2308
2023-04-16T00:08:14.645Z,424.0000
2023-04-16T00:09:15.645Z,415.5385
2023-04-16T00:10:16.729Z,410.6923
2023-04-16T00:11:17.779Z,416.5385
2023-04-16T00:12:18.764Z,425.2308
2023-04-16T00:13:19.801Z,413.1538
2023-04-16T00:14:20.847Z,411.7692
2023-04-16T00:15:22.010Z,414.1538
2023-04-16T00:16:23.032Z,409.3077
2023-04-16T00:17:24.046Z,412.6923
2023-04-16T00:18:25.050Z,416.4615
2023-04-16T00:19:26.100Z,411.3846
2023-04-16T00:20:27.143Z,410.4615
2023-04-16T00:21:28.191Z,410.0769
2023-04-16T00:22:29.210Z,405.0769
2023-04-16T00:23:30.222Z,413.4615
2023-04-16T00:24:31.268Z,413.6154
2023-04-16T00:25:32.352Z,415.4615
2023-04-16T00:26:33.346Z,408.1538
2023-04-16T00:27:34.400Z,420.4615
2023-04-16T00:28:35.402Z,409.9231
2023-04-16T00:29:36.404Z,419.1538
2023-04-16T00:30:37.471Z,424.6923
2023-04-16T00:31:38.451Z,414.0000
2023-04-16T00:32:39.540Z,416.0769
2023-04-16T00:33:40.512Z,421.6923
2023-04-16T00:34:41.665Z,426.2308
2023-04-16T00:35:42.645Z,423.3077
2023-04-16T00:36:43.648Z,413.1538
2023-04-16T00:37:44.694Z,413.5385
2023-04-16T00:38:45.681Z,405.7692
2023-04-16T00:39:46.787Z,408.4615
2023-04-16T00:40:47.800Z,405.6923
2023-04-16T00:41:48.805Z,403.9231
2023-04-16T00:42:49.833Z,405.1538
2023-04-16T00:43:50.886Z,404.3077
2023-04-16T00:44:51.925Z,399.3846
2023-04-16T00:45:53.072Z,401.3846
2023-04-16T00:46:54.016Z,401.4615
2023-04-16T00:47:55.142Z,401.8462
2023-04-16T00:48:56.060Z,401.0769
2023-04-16T00:49:57.125Z,404.4615
2023-04-16T00:50:58.183Z,406.2308
2023-04-16T00:51:59.224Z,406.4615
2023-04-16T00:53:00.235Z,405.0000
2023-04-16T00:54:01.266Z,413.9231
2023-04-16T00:55:02.306Z,413.7692
2023-04-16T00:56:03.380Z,413.8462
2023-04-16T00:57:04.384Z,413.1538
2023-04-16T00:58:05.390Z,414.5385
2023-04-16T00:59:06.426Z,411.3846
2023-04-16T01:00:07.462Z,407.6923
2023-04-16T01:01:08.709Z,412.3077
2023-04-16T01:02:09.646Z,416.0769
2023-04-16T01:03:10.756Z,424.0000
2023-04-16T01:04:11.846Z,420.4615
2023-04-16T01:05:12.728Z,420.8462
2023-04-16T01:06:13.762Z,424.0000
2023-04-16T01:07:14.764Z,422.3077
2023-04-16T01:08:15.825Z,415.9231
2023-04-16T01:09:16.861Z,426.0000
2023-04-16T01:10:17.934Z,419.1538
2023-04-16T01:11:18.999Z,420.2308
2023-04-16T01:12:19.985Z,427.9231
2023-04-16T01:13:21.009Z,422.6923
2023-04-16T01:14:22.047Z,426.0769
2023-04-16T01:15:23.104Z,430.0000
2023-04-16T01:16:24.288Z,421.3846
2023-04-16T01:17:25.174Z,411.0000
2023-04-16T01:18:26.264Z,418.6154
2023-04-16T01:19:27.265Z,417.9231
2023-04-16T01:20:28.287Z,423.5385
2023-04-16T01:21:29.328Z,429.0000
2023-04-16T01:22:30.351Z,420.7692
2023-04-16T01:23:31.385Z,420.8462
2023-04-16T01:24:32.975Z,427.6923
2023-04-16T01:25:33.386Z,423.5385
2023-04-16T01:26:34.405Z,416.5385
2023-04-16T01:27:35.437Z,415.3846
2023-04-16T01:28:36.489Z,414.0769
2023-04-16T01:29:37.508Z,418.1538
2023-04-16T01:30:38.529Z,416.6154
2023-04-16T01:31:39.656Z,411.5385
2023-04-16T01:32:40.630Z,411.6154
2023-04-16T01:33:41.633Z,406.0000
2023-04-16T01:34:42.688Z,413.7692
2023-04-16T01:35:43.725Z,421.0769
2023-04-16T01:36:44.793Z,435.0000
2023-04-16T01:37:45.809Z,439.5385
2023-04-16T01:38:46.846Z,441.9231
2023-04-16T01:39:47.876Z,438.3846
2023-04-16T01:40:48.920Z,436.0000
2023-04-16T01:41:49.967Z,416.7692
2023-04-16T01:42:50.980Z,425.4615
2023-04-16T01:43:51.987Z,425.9231
2023-04-16T01:44:53.008Z,433.4615
2023-04-16T01:45:54.060Z,438.4615
2023-04-16T01:46:55.153Z,434.6154
2023-04-16T01:47:56.149Z,436.8462
2023-04-16T01:48:57.181Z,433.8462
2023-04-16T01:49:58.276Z,432.5385
2023-04-16T01:50:59.234Z,437.5385
2023-04-16T01:52:00.298Z,433.7692
2023-04-16T01:53:01.328Z,425.7692
2023-04-16T01:54:02.347Z,416.4615
2023-04-16T01:55:03.383Z,409.3077
2023-04-16T01:56:04.425Z,412.6154
2023-04-16T01:57:05.520Z,423.6923
2023-04-16T01:58:06.605Z,436.3077
2023-04-16T01:59:08.044Z,434.1538
2023-04-16T02:00:08.641Z,444.4615
2023-04-16T02:01:09.750Z,446.8462
2023-04-16T02:02:10.758Z,448.5385
2023-04-16T02:03:11.935Z,446.0000
2023-04-16T02:04:12.822Z,443.7692
2023-04-16T02:05:13.811Z,446.6923
2023-04-16T02:06:14.851Z,451.7692
2023-04-16T02:07:15.896Z,453.2308
2023-04-16T02:08:17.063Z,450.3077
2023-04-16T02:09:17.958Z,443.3077
2023-04-16T02:10:19.005Z,442.5385
2023-04-16T02:11:20.024Z,437.6923
2023-04-16T02:12:21.006Z,427.1538
2023-04-16T02:13:22.040Z,428.3846
2023-04-16T02:14:23.052Z,431.8462
2023-04-16T02:15:24.075Z,440.3846
2023-04-16T02:16:25.153Z,436.3077
2023-04-16T02:17:26.172Z,435.6923
2023-04-16T02:18:27.206Z,431.6923
2023-04-16T02:19:28.202Z,429.2308
2023-04-16T02:20:29.263Z,434.6923
2023-04-16T02:21:30.281Z,442.6923
2023-04-16T02:22:31.323Z,448.2308
2023-04-16T02:23:32.384Z,442.1538
2023-04-16T02:24:33.379Z,441.6154
2023-04-16T02:25:34.423Z,433.7692
2023-04-16T02:26:35.441Z,426.1538
2023-04-16T02:27:36.484Z,434.2308
2023-04-16T02:28:37.561Z,430.7692
2023-04-16T02:29:38.528Z,436.6923
2023-04-16T02:30:39.609Z,436.3077
2023-04-16T02:31:40.680Z,434.7692
2023-04-16T02:32:41.713Z,428.0000
2023-04-16T02:33:42.719Z,425.9231
2023-04-16T02:34:43.739Z,421.4615
2023-04-16T02:35:44.782Z,419.0769
2023-04-16T02:36:45.785Z,420.0000
2023-04-16T02:37:46.855Z,419.6923
2023-04-16T02:38:47.928Z,428.8462
2023-04-16T02:39:48.923Z,432.7692
2023-04-16T02:40:49.947Z,433.8462
2023-04-16T02:41:51.008Z,425.2308
2023-04-16T02:42:52.029Z,424.3846
2023-04-16T02:43:53.101Z,431.7692
2023-04-16T02:44:54.100Z,441.4615
2023-04-16T02:45:55.236Z,427.6154
2023-04-16T02:46:56.302Z,422.0000
2023-04-16T02:47:57.397Z,423.6923
2023-04-16T02:48:58.367Z,417.3846
2023-04-16T02:49:59.350Z,426.3077
2023-04-16T02:51:00.394Z,430.2308
2023-04-16T02:52:01.449Z,432.2308
2023-04-16T02:53:02.464Z,431.8462
2023-04-16T02:54:03.574Z,433.0769
2023-04-16T02:55:04.623Z,436.7692
2023-04-16T02:56:05.593Z,440.2308
2023-04-16T02:57:06.646Z,444.0000
2023-04-16T02:58:07.657Z,442.0000
2023-04-16T02:59:08.937Z,442.1538
2023-04-16T03:00:09.769Z,441.6923
2023-04-16T03:01:10.850Z,433.3077
2023-04-16T03:02:11.885Z,435.7692
2023-04-16T03:03:12.945Z,430.0769
2023-04-16T03:04:13.945Z,433.0769
2023-04-16T03:05:14.933Z,431.2308
2023-04-16T03:06:16.031Z,413.5385
2023-04-16T03:07:17.069Z,416.6923
2023-04-16T03:08:18.051Z,425.6923
2023-04-16T03:09:19.091Z,423.4615
2023-04-16T03:10:20.134Z,431.3077
2023-04-16T03:11:21.191Z,434.3077
2023-04-16T03:12:22.174Z,423.1538
2023-04-16T03:13:23.234Z,411.9231
2023-04-16T03:14:24.311Z,414.8462
2023-04-16T03:15:25.323Z,417.0769
2023-04-16T03:16:26.353Z,415.0000
2023-04-16T03:17:27.429Z,416.2308
2023-04-16T03:18:28.396Z,418.8462
2023-04-16T03:19:29.475Z,420.0000
2023-04-16T03:20:30.492Z,414.3846
2023-04-16T03:21:31.552Z,408.9231
2023-04-16T03:22:32.582Z,407.5385
2023-04-16T03:23:33.625Z,400.3846
2023-04-16T03:24:34.689Z,397.0769
2023-04-16T03:25:35.730Z,400.0769
2023-04-16T03:26:36.722Z,406.1538
2023-04-16T03:27:37.774Z,405.2308
2023-04-16T03:28:38.818Z,391.6154
2023-04-16T03:29:39.883Z,390.0000
2023-04-16T03:30:40.902Z,391.3846
2023-04-16T03:31:41.989Z,397.2308
2023-04-16T03:32:43.063Z,407.6154
2023-04-16T03:33:43.998Z,404.0000
2023-04-16T03:34:45.089Z,398.3077
2023-04-16T03:35:46.125Z,393.6923
2023-04-16T03:36:47.298Z,407.6154
2023-04-16T03:37:48.156Z,408.6923
2023-04-16T03:38:49.206Z,409.1538
2023-04-16T03:39:50.310Z,406.0769
2023-04-16T03:40:51.304Z,400.9231
2023-04-16T03:41:52.382Z,400.0000
2023-04-16T03:42:53.436Z,408.0769
2023-04-16T03:43:54.623Z,412.5385
2023-04-16T03:44:55.502Z,407.6923
2023-04-16T03:45:56.577Z,407.7692
2023-04-16T03:46:57.659Z,410.6923
2023-04-16T03:47:58.656Z,401.7692
2023-04-16T03:48:59.694Z,382.5385
2023-04-16T03:50:00.732Z,383.9231
2023-04-16T03:51:01.812Z,394.6154
2023-04-16T03:52:02.852Z,402.8462
2023-04-16T03:53:03.831Z,403.5385
2023-04-16T03:54:04.883Z,396.3077
2023-04-16T03:55:05.831Z,397.1538
2023-04-16T03:56:06.900Z,396.2308
2023-04-16T03:57:07.895Z,404.0000
2023-04-16T03:58:08.952Z,403.6154
2023-04-16T03:59:10.139Z,399.3846
2023-04-16T04:00:11.038Z,392.8462
2023-04-16T04:01:12.082Z,390.4615
2023-04-16T04:02:13.263Z,401.2308
2023-04-16T04:03:14.310Z,406.0000
2023-04-16T04:04:15.234Z,398.7692
2023-04-16T04:05:16.217Z,389.8462
2023-04-16T04:06:17.294Z,389.3077
2023-04-16T04:07:18.311Z,398.5385
2023-04-16T04:08:19.313Z,400.1538
2023-04-16T04:09:20.396Z,395.7692
2023-04-16T04:10:21.410Z,398.1538
2023-04-16T04:11:22.478Z,398.8462
2023-04-16T04:12:23.481Z,403.4615
2023-04-16T04:13:24.526Z,404.1538
2023-04-16T04:14:25.556Z,400.0000
2023-04-16T04:15:26.616Z,403.2308
2023-04-16T04:16:27.699Z,415.9231
2023-04-16T04:17:28.667Z,417.1538
2023-04-16T04:18:29.713Z,418.2308
2023-04-16T04:19:30.777Z,404.2308
2023-04-16T04:20:31.807Z,394.6154
2023-04-16T04:21:32.896Z,393.6923
2023-04-16T04:22:33.877Z,390.3077
2023-04-16T04:23:34.924Z,399.0769
2023-04-16T04:24:35.971Z,400.6923
2023-04-16T04:25:37.002Z,403.4615
2023-04-16T04:26:38.183Z,405.9231
2023-04-16T04:27:39.060Z,410.3846
2023-04-16T04:28:40.175Z,408.0769
2023-04-16T04:29:41.204Z,411.0000
2023-04-16T04:30:42.382Z,409.6923
2023-04-16T04:31:43.515Z,404.3077
2023-04-16T04:32:44.371Z,400.9231
2023-04-16T04:33:45.365Z,387.8462
2023-04-16T04:34:46.415Z,381.5385
2023-04-16T04:35:47.544Z,380.6154
2023-04-16T04:36:48.522Z,384.1538
2023-04-16T04:37:49.557Z,389.3077
2023-04-16T04:38:50.566Z,399.6923
2023-04-16T04:39:51.609Z,406.6154
2023-04-16T04:40:52.690Z,405.8462
2023-04-16T04:41:53.703Z,401.9231
2023-04-16T04:42:54.733Z,409.7692
2023-04-16T04:43:55.791Z,408.0769
2023-04-16T04:44:56.822Z,406.4615
2023-04-16T04:45:57.881Z,413.6923
2023-04-16T04:46:58.923Z,417.8462
2023-04-16T04:47:59.951Z,422.3846
2023-04-16T04:49:00.966Z,427.2308
2023-04-16T04:50:01.988Z,419.7692
2023-04-16T04:51:05.032Z,418.1538
2023-04-16T04:52:04.063Z,418.3846
2023-04-16T04:53:05.042Z,413.3846
2023-04-16T04:54:06.105Z,404.2308
2023-04-16T04:55:07.162Z,407.3077
2023-04-16T04:56:12.796Z,401.9231
2023-04-16T04:57:09.286Z,405.3846
2023-04-16T04:58:10.269Z,407.3846
2023-04-16T04:59:11.450Z,406.0000
2023-04-16T05:00:12.326Z,407.8462
2023-04-16T05:01:13.367Z,404.3846
2023-04-16T05:02:14.532Z,409.3077
2023-04-16T05:03:15.489Z,410.3077
2023-04-16T05:04:16.598Z,416.5385
2023-04-16T05:05:17.586Z,417.6154
2023-04-16T05:06:18.567Z,423.7692
2023-04-16T05:07:19.589Z,413.3077
2023-04-16T05:08:20.639Z,412.5385
2023-04-16T05:09:21.663Z,413.2308
2023-04-16T05:10:22.693Z,417.2308
2023-04-16T05:11:23.716Z,415.2308
2023-04-16T05:12:24.775Z,413.6154
2023-04-16T05:13:25.811Z,414.6154
2023-04-16T05:14:26.852Z,408.4615
2023-04-16T05:15:27.896Z,416.5385
2023-04-16T05:16:28.978Z,419.7692
2023-04-16T05:17:30.038Z,422.3846
2023-04-16T05:18:30.972Z,419.8462
2023-04-16T05:19:32.070Z,412.2308
2023-04-16T05:20:33.068Z,414.8462
2023-04-16T05:21:34.106Z,417.0000
2023-04-16T05:22:35.178Z,423.5385
2023-04-16T05:23:36.221Z,431.4615
2023-04-16T05:24:37.277Z,429.6154
2023-04-16T05:25:38.333Z,427.4615
2023-04-16T05:26:39.369Z,411.0000
2023-04-16T05:27:40.478Z,397.4615
2023-04-16T05:28:41.459Z,403.3077
2023-04-16T05:29:42.492Z,414.5385
2023-04-16T05:30:43.588Z,423.0769
2023-04-16T05:31:44.574Z,426.1538
2023-04-16T05:32:45.683Z,427.0000
2023-04-16T05:33:46.658Z,421.5385
2023-04-16T05:34:47.719Z,412.3077
2023-04-16T05:35:48.675Z,414.3077
2023-04-16T05:36:49.690Z,421.5385
2023-04-16T05:37:50.793Z,415.2308
2023-04-16T05:38:51.828Z,418.3846
2023-04-16T05:39:52.932Z,413.7692
2023-04-16T05:40:53.855Z,411.4615
2023-04-16T05:41:54.902Z,413.6923
2023-04-16T05:42:56.013Z,420.7692
2023-04-16T05:43:56.984Z,427.2308
2023-04-16T05:44:58.027Z,434.5385
2023-04-16T05:45:59.108Z,432.1538
2023-04-16T05:47:00.094Z,432.1538
2023-04-16T05:48:01.196Z,429.5385
2023-04-16T05:49:02.189Z,424.6923
2023-04-16T05:50:03.190Z,429.6923
2023-04-16T05:51:04.306Z,422.8462
2023-04-16T05:52:05.275Z,418.5385
2023-04-16T05:53:06.292Z,423.3846
2023-04-16T05:54:07.365Z,414.2308
2023-04-16T05:55:08.349Z,414.6154
2023-04-16T05:56:09.390Z,410.6923
2023-04-16T05:57:10.433Z,410.8462
2023-04-16T05:58:11.470Z,399.5385
2023-04-16T05:59:12.555Z,414.6154
2023-04-16T06:00:13.526Z,420.7692
2023-04-16T06:01:14.600Z,429.1538
2023-04-16T06:02:15.710Z,418.4615
2023-04-16T06:03:16.828Z,402.2308
2023-04-16T06:04:17.875Z,401.3846
2023-04-16T06:05:18.738Z,401.5385
2023-04-16T06:06:19.783Z,400.3077
2023-04-16T06:07:20.836Z,403.8462
2023-04-16T06:08:21.849Z,409.2308
2023-04-16T06:09:23.024Z,417.9231
2023-04-16T06:10:23.939Z,419.3846
2023-04-16T06:11:24.993Z,412.0769
2023-04-16T06:12:26.025Z,416.0769
2023-04-16T06:13:27.080Z,411.9231
2023-04-16T06:14:28.168Z,408.9231
2023-04-16T06:15:29.132Z,415.4615
2023-04-16T06:16:30.259Z,422.1538
2023-04-16T06:17:31.265Z,426.1538
2023-04-16T06:18:32.294Z,429.6154
2023-04-16T06:19:33.344Z,425.7692
2023-04-16T06:20:34.351Z,414.6923
2023-04-16T06:21:35.380Z,415.1538
2023-04-16T06:22:36.417Z,420.0000
2023-04-16T06:23:37.486Z,418.4615
2023-04-16T06:24:38.558Z,427.4615
2023-04-16T06:25:39.554Z,422.6154
2023-04-16T06:26:40.576Z,430.0000
2023-04-16T06:27:41.615Z,430.2308
2023-04-16T06:28:42.648Z,426.6923
2023-04-16T06:29:43.750Z,432.9231
2023-04-16T06:30:44.861Z,435.0769
2023-04-16T06:31:45.813Z,437.3846
2023-04-16T06:32:46.862Z,434.3846
2023-04-16T06:33:47.856Z,433.0000
2023-04-16T06:34:49.161Z,434.0000
2023-04-16T06:35:49.928Z,437.1538
2023-04-16T06:36:50.968Z,441.4615
2023-04-16T06:37:52.004Z,444.4615
2023-04-16T06:38:53.050Z,447.7692
2023-04-16T06:39:54.131Z,446.2308
2023-04-16T06:40:55.116Z,440.3077
2023-04-16T06:41:56.185Z,442.8462
2023-04-16T06:42:57.216Z,438.5385
2023-04-16T06:43:58.231Z,433.5385
2023-04-16T06:44:59.292Z,434.6923
2023-04-16T06:46:00.303Z,436.3846
2023-04-16T06:47:01.407Z,436.1538
2023-04-16T06:48:02.433Z,437.6923
2023-04-16T06:49:03.435Z,428.0769
2023-04-16T06:50:04.564Z,404.2308
2023-04-16T06:51:05.509Z,409.3846
2023-04-16T06:52:06.546Z,420.0000
2023-04-16T06:53:07.559Z,415.9231
2023-04-16T06:54:08.619Z,416.3846
2023-04-16T06:55:09.704Z,403.0000
2023-04-16T06:56:10.709Z,397.0769
2023-04-16T06:57:11.714Z,398.8462
2023-04-16T06:58:12.780Z,399.3077
2023-04-16T06:59:13.755Z,407.5385
2023-04-16T07:00:14.855Z,412.5385
2023-04-16T07:01:15.905Z,422.4615
2023-04-16T07:02:17.022Z,426.6923
2023-04-16T07:03:18.017Z,424.8462
2023-04-16T07:04:19.013Z,412.3846
2023-04-16T07:05:20.184Z,401.6154
2023-04-16T07:06:21.160Z,400.3846
2023-04-16T07:07:22.322Z,406.6154
2023-04-16T07:08:23.193Z,417.1538
2023-04-16T07:09:24.259Z,418.0000
2023-04-16T07:10:25.582Z,408.5385
2023-04-16T07:11:26.306Z,405.1538
2023-04-16T07:12:27.366Z,408.6154
2023-04-16T07:13:28.590Z,416.0769
2023-04-16T07:14:29.440Z,415.0769
2023-04-16T07:15:30.526Z,420.3846
2023-04-16T07:16:31.596Z,424.6154
2023-04-16T07:17:32.594Z,426.1538
2023-04-16T07:18:33.586Z,423.8462
2023-04-16T07:19:34.603Z,415.8462
2023-04-16T07:20:35.671Z,401.5385
2023-04-16T07:21:36.745Z,392.4615
2023-04-16T07:22:37.729Z,383.8462
2023-04-16T07:23:38.745Z,390.3846
2023-04-16T07:24:39.788Z,405.6154
2023-04-16T07:25:41.160Z,407.2308
2023-04-16T07:26:41.876Z,414.2308
2023-04-16T07:27:42.923Z,415.5385
2023-04-16T07:28:43.955Z,415.3077
2023-04-16T07:29:44.984Z,412.0000
2023-04-16T07:30:46.048Z,407.1538
2023-04-16T07:31:47.151Z,416.3846
2023-04-16T07:32:48.162Z,413.8462
2023-04-16T07:33:49.148Z,399.5385
2023-04-16T07:34:50.235Z,401.6923
2023-04-16T07:35:51.240Z,408.9231
2023-04-16T07:36:52.309Z,404.8462
2023-04-16T07:37:53.310Z,401.9231
2023-04-16T07:38:54.386Z,408.8462
2023-04-16T07:39:57.375Z,416.4615
2023-04-16T07:40:56.411Z,417.8462
2023-04-16T07:41:57.524Z,420.5385
2023-04-16T07:42:58.494Z,416.3077
2023-04-16T07:43:59.558Z,395.8462
2023-04-16T07:45:00.585Z,391.3077
2023-04-16T07:46:01.655Z,406.3846
2023-04-16T07:47:05.246Z,411.3846
2023-04-16T07:48:03.718Z,397.9231
2023-04-16T07:49:04.751Z,389.6154
2023-04-16T07:50:05.767Z,397.4615
2023-04-16T07:51:06.812Z,401.6923
2023-04-16T07:52:07.866Z,405.0000
2023-04-16T07:53:08.869Z,399.6923
2023-04-16T07:54:09.882Z,401.3846
2023-04-16T07:55:10.909Z,413.6154
2023-04-16T07:56:11.940Z,418.4615
2023-04-16T07:57:13.053Z,402.0000
2023-04-16T07:58:14.027Z,399.6154
2023-04-16T07:59:22.728Z,396.4615
2023-04-16T08:00:16.122Z,383.5385
2023-04-16T08:01:17.145Z,379.8462
2023-04-16T08:02:18.284Z,395.7692
2023-04-16T08:03:19.428Z,409.5385
2023-04-16T08:04:20.434Z,407.3846
2023-04-16T08:05:21.372Z,401.7692
2023-04-16T08:06:22.316Z,395.9231
2023-04-16T08:07:23.419Z,397.0000
2023-04-16T08:08:24.398Z,398.6923
2023-04-16T08:09:25.449Z,393.2308
2023-04-16T08:10:26.480Z,401.3077
2023-04-16T08:11:27.544Z,406.6154
2023-04-16T08:12:28.650Z,401.8462
2023-04-16T08:13:30.851Z,411.3077
2023-04-16T08:14:30.678Z,417.1538
2023-04-16T08:15:31.736Z,412.7692
2023-04-16T08:16:32.719Z,407.5385
2023-04-16T08:17:33.825Z,409.6154
2023-04-16T08:18:34.847Z,413.2308
2023-04-16T08:19:35.856Z,413.1538
2023-04-16T08:20:36.903Z,411.3846
2023-04-16T08:21:37.900Z,412.5385
2023-04-16T08:22:38.948Z,415.7692
2023-04-16T08:23:40.026Z,420.2308
2023-04-16T08:24:41.036Z,419.6154
2023-04-16T08:25:42.100Z,425.8462
2023-04-16T08:26:43.096Z,425.0769
2023-04-16T08:27:44.149Z,426.0000
2023-04-16T08:28:45.211Z,407.6154
2023-04-16T08:29:46.199Z,401.4615
2023-04-16T08:30:47.236Z,392.5385
2023-04-16T08:31:48.328Z,398.3846
2023-04-16T08:32:50.233Z,403.6923
2023-04-16T08:33:50.409Z,395.0000
2023-04-16T08:34:51.442Z,395.9231
2023-04-16T08:35:52.471Z,397.0000
2023-04-16T08:36:53.503Z,392.6154
2023-04-16T08:37:54.562Z,398.8462
2023-04-16T08:38:55.603Z,408.2308
2023-04-16T08:39:56.583Z,416.6923
2023-04-16T08:40:57.620Z,419.1538
2023-04-16T08:41:58.701Z,422.3077
2023-04-16T08:42:59.694Z,420.3846
2023-04-16T08:44:00.970Z,415.4615
2023-04-16T08:45:01.806Z,414.3846
2023-04-16T08:46:02.830Z,416.0000
2023-04-16T08:47:03.973Z,425.2308
2023-04-16T08:48:05.006Z,403.0000
2023-04-16T08:49:06.000Z,405.9231
2023-04-16T08:50:07.005Z,411.1538
2023-04-16T08:51:08.058Z,411.0000
2023-04-16T08:52:09.095Z,413.6923
2023-04-16T08:53:10.108Z,396.4615
2023-04-16T08:54:11.193Z,393.0000
2023-04-16T08:55:12.192Z,394.8462
2023-04-16T08:56:13.255Z,391.9231
2023-04-16T08:57:14.248Z,412.1538
2023-04-16T08:58:15.400Z,407.4615
2023-04-16T08:59:16.383Z,396.1538
2023-04-16T09:00:17.381Z,377.0000
2023-04-16T09:01:18.539Z,390.9231
2023-04-16T09:02:19.521Z,404.3846
2023-04-16T09:03:20.687Z,403.9231
2023-04-16T09:04:21.672Z,397.5385
2023-04-16T09:05:22.622Z,396.3846
2023-04-16T09:06:23.638Z,390.8462
2023-04-16T09:07:24.696Z,388.3846
2023-04-16T09:08:25.907Z,395.9231
2023-04-16T09:09:27.197Z,394.7692
2023-04-16T09:10:27.796Z,395.6923
2023-04-16T09:11:28.810Z,411.7692
2023-04-16T09:12:29.853Z,422.1538
2023-04-16T09:13:30.895Z,425.5385
2023-04-16T09:14:31.955Z,424.2308
2023-04-16T09:15:35.038Z,422.6923
2023-04-16T09:16:34.028Z,418.1538
2023-04-16T09:17:35.097Z,408.1538
2023-04-16T09:18:36.056Z,405.4615
2023-04-16T09:19:37.233Z,410.3077
2023-04-16T09:20:38.113Z,414.2308
2023-04-16T09:21:39.182Z,416.5385
2023-04-16T09:22:40.224Z,425.3077
2023-04-16T09:23:41.235Z,417.4615
2023-04-16T09:24:42.314Z,417.6923
2023-04-16T09:25:43.301Z,413.4615
2023-04-16T09:26:44.504Z,417.0000
2023-04-16T09:27:45.407Z,404.8462
2023-04-16T09:28:46.436Z,401.3077
2023-04-16T09:29:47.500Z,404.5385
2023-04-16T09:30:48.497Z,408.6923
2023-04-16T09:31:49.613Z,410.3077
2023-04-16T09:32:50.645Z,412.3846
2023-04-16T09:33:51.616Z,411.3077
2023-04-16T09:34:52.658Z,419.9231
2023-04-16T09:35:53.776Z,419.9231
2023-04-16T09:36:54.700Z,425.0769
2023-04-16T09:37:55.719Z,424.0769
2023-04-16T09:38:57.786Z,430.6923
2023-04-16T09:39:57.860Z,434.0000
2023-04-16T09:40:58.901Z,433.4615
2023-04-16T09:41:59.979Z,428.0769
2023-04-16T09:43:00.969Z,425.2308
2023-04-16T09:44:02.030Z,428.5385
2023-04-16T09:45:05.457Z,430.0000
2023-04-16T09:46:07.865Z,426.3077
2023-04-16T09:47:05.102Z,429.8462
2023-04-16T09:48:06.194Z,430.5385
2023-04-16T09:49:07.390Z,429.1538
2023-04-16T09:50:08.233Z,428.6154
2023-04-16T09:51:09.254Z,419.0769
2023-04-16T09:52:10.269Z,411.4615
2023-04-16T09:53:11.313Z,417.0769
2023-04-16T09:54:12.376Z,420.4615
2023-04-16T09:55:13.444Z,416.9231
2023-04-16T09:56:14.496Z,430.0769
2023-04-16T09:57:15.468Z,433.0769
2023-04-16T09:58:16.530Z,438.1538
2023-04-16T09:59:17.543Z,434.6154
2023-04-16T10:00:18.779Z,433.4615
2023-04-16T10:01:19.692Z,432.8462
2023-04-16T10:02:20.718Z,430.6154
2023-04-16T10:03:21.810Z,425.0000
2023-04-16T10:04:22.780Z,422.6154
2023-04-16T10:05:23.779Z,423.5385
2023-04-16T10:06:24.837Z,429.6923
2023-04-16T10:07:25.855Z,438.4615
2023-04-16T10:08:26.913Z,437.0769
2023-04-16T10:09:27.914Z,433.6923
2023-04-16T10:10:28.991Z,408.4615
2023-04-16T10:11:30.062Z,414.2308
2023-04-16T10:12:31.014Z,418.5385
2023-04-16T10:13:32.081Z,409.1538
2023-04-16T10:14:33.195Z,413.1538
2023-04-16T10:15:34.212Z,397.6154
2023-04-16T10:16:35.226Z,406.0000
2023-04-16T10:17:36.231Z,405.6923
2023-04-16T10:18:37.249Z,425.0000
2023-04-16T10:19:38.314Z,433.0000
2023-04-16T10:20:39.392Z,421.3077
2023-04-16T10:21:40.398Z,425.0769
2023-04-16T10:22:41.400Z,426.1538
2023-04-16T10:23:42.440Z,408.1538
2023-04-16T10:24:43.478Z,414.0000
2023-04-16T10:25:44.520Z,422.5385
2023-04-16T10:26:45.621Z,414.8462
2023-04-16T10:27:46.644Z,416.0769
2023-04-16T10:28:47.644Z,417.9231
2023-04-16T10:29:48.681Z,429.3077
2023-04-16T10:30:49.756Z,424.0000
2023-04-16T10:31:50.819Z,428.3077
2023-04-16T10:32:51.855Z,426.8462
2023-04-16T10:33:52.876Z,422.7692
2023-04-16T10:34:53.910Z,416.3846
2023-04-16T10:36:04.892Z,424.0000
2023-04-16T10:36:56.080Z,433.4615
2023-04-16T10:37:56.985Z,442.6154
2023-04-16T10:38:58.031Z,435.3846
2023-04-16T10:39:59.070Z,433.3846
2023-04-16T10:41:00.103Z,443.9231
2023-04-16T10:42:01.171Z,450.6154
2023-04-16T10:43:02.184Z,459.7692
2023-04-16T10:44:03.217Z,463.8462
2023-04-16T10:45:04.269Z,464.1538
2023-04-16T10:46:05.304Z,469.3846
2023-04-16T10:47:06.424Z,472.8462
2023-04-16T10:48:08.018Z,473.1538
2023-04-16T10:49:08.670Z,481.0769
2023-04-16T10:50:09.430Z,474.8462
2023-04-16T10:51:10.449Z,466.0769
2023-04-16T10:52:11.509Z,471.2308
2023-04-16T10:53:12.534Z,478.0000
2023-04-16T10:54:13.563Z,470.0000
2023-04-16T10:55:14.604Z,463.1538
2023-04-16T10:56:15.645Z,466.6923
2023-04-16T10:57:16.718Z,456.7692
2023-04-16T10:58:17.707Z,452.6154
2023-04-16T10:59:18.758Z,463.1538
2023-04-16T11:00:20.024Z,465.4615
2023-04-16T11:01:20.885Z,472.5385
2023-04-16T11:02:22.026Z,480.6923
2023-04-16T11:03:23.045Z,472.0769
2023-04-16T11:04:24.010Z,469.6923
2023-04-16T11:05:24.986Z,475.4615
2023-04-16T11:06:26.134Z,471.4615
2023-04-16T11:07:27.147Z,466.0769
2023-04-16T11:08:28.188Z,460.8462
2023-04-16T11:09:29.208Z,455.6923
2023-04-16T11:10:30.246Z,457.9231
2023-04-16T11:11:31.289Z,464.5385
2023-04-16T11:12:32.380Z,472.1538
2023-04-16T11:13:33.378Z,471.3077
2023-04-16T11:14:34.428Z,457.0000
2023-04-16T11:15:35.474Z,448.6154
2023-04-16T11:16:36.495Z,447.3077
2023-04-16T11:17:37.613Z,444.0769
2023-04-16T11:18:38.566Z,449.0769
2023-04-16T11:19:39.584Z,466.2308
2023-04-16T11:20:40.657Z,457.0769
2023-04-16T11:21:41.651Z,448.7692
2023-04-16T11:22:42.749Z,450.1538
2023-04-16T11:23:43.808Z,453.6154
2023-04-16T11:24:44.852Z,451.0000
2023-04-16T11:25:45.811Z,439.6923
2023-04-16T11:26:46.844Z,451.0000
2023-04-16T11:27:48.046Z,452.6923
2023-04-16T11:28:48.941Z,460.9231
2023-04-16T11:29:49.956Z,471.2308
2023-04-16T11:30:50.993Z,468.2308
2023-04-16T11:31:52.154Z,474.8462
2023-04-16T11:32:53.286Z,482.3846
2023-04-16T11:33:54.124Z,474.2308
2023-04-16T11:34:55.185Z,466.3846
2023-04-16T11:35:56.226Z,463.0769
2023-04-16T11:36:57.258Z,459.6154
2023-04-16T11:37:58.285Z,461.6923
2023-04-16T11:38:59.412Z,471.7692
2023-04-16T11:40:00.442Z,458.6154
2023-04-16T11:41:01.473Z,453.7692
2023-04-16T11:42:02.570Z,455.7692
2023-04-16T11:43:03.609Z,468.7692
2023-04-16T11:44:04.649Z,470.1538
2023-04-16T11:45:05.660Z,473.6923
2023-04-16T11:46:16.588Z,469.2308
2023-04-16T11:47:07.868Z,475.8462
2023-04-16T11:48:11.093Z,474.3846
2023-04-16T11:49:10.136Z,479.8462
2023-04-16T11:50:10.887Z,479.6154
2023-04-16T11:51:11.891Z,481.8462
2023-04-16T11:52:12.953Z,475.9231
2023-04-16T11:53:14.003Z,469.7692
2023-04-16T11:54:15.003Z,478.2308
2023-04-16T11:55:16.033Z,487.0000
2023-04-16T11:56:17.103Z,490.2308